createdAt,value
2018-05-11T00:01:10.007Z,24.05
2018-05-11T00:03:36.646Z,25.95
2018-05-11T00:06:03.311Z,23.65
2018-05-11T00:08:29.944Z,21.85
2018-05-11T00:10:56.598Z,26.80
2018-05-11T00:13:23.248Z,27.30
2018-05-11T00:15:50.275Z,29.17
2018-05-11T00:18:16.950Z,29.65
2018-05-11T00:20:43.572Z,26.58
2018-05-11T00:23:10.233Z,28.15
2018-05-11T00:25:36.893Z,26.65
2018-05-11T00:28:03.528Z,25.20
2018-05-11T00:30:30.192Z,27.90
2018-05-11T00:32:56.827Z,26.45
2018-05-11T00:35:23.507Z,25.02
2018-05-11T00:37:50.129Z,25.30
2018-05-11T00:40:16.778Z,25.90
2018-05-11T00:42:43.423Z,24.48
2018-05-11T00:45:10.086Z,25.08
2018-05-11T00:47:36.770Z,26.55
2018-05-11T00:50:03.451Z,26.00
2018-05-11T00:52:30.094Z,26.67
2018-05-11T00:54:56.774Z,26.45
2018-05-11T00:57:23.419Z,26.35
2018-05-11T00:59:50.127Z,25.35
2018-05-11T01:02:16.773Z,26.17
2018-05-11T01:04:43.487Z,25.55
2018-05-11T01:07:10.110Z,25.90
2018-05-11T01:09:36.791Z,27.33
2018-05-11T01:12:03.488Z,29.70
2018-05-11T01:14:30.907Z,26.50
2018-05-11T01:16:57.631Z,27.02
2018-05-11T01:19:24.277Z,26.37
2018-05-11T01:21:50.985Z,30.55
2018-05-11T01:24:17.622Z,30.10
2018-05-11T01:26:44.273Z,27.37
2018-05-11T01:29:10.962Z,26.65
2018-05-11T01:31:37.613Z,25.00
2018-05-11T01:34:04.352Z,26.50
2018-05-11T01:36:31.057Z,26.75
2018-05-11T01:38:57.798Z,27.10
2018-05-11T01:41:24.498Z,26.52
2018-05-11T01:43:51.130Z,29.08
2018-05-11T01:46:17.794Z,27.85
2018-05-11T01:48:44.486Z,29.87
2018-05-11T01:51:11.114Z,28.27
2018-05-11T01:53:37.782Z,27.62
2018-05-11T01:56:04.465Z,26.95
2018-05-11T01:58:31.102Z,32.03
2018-05-11T02:00:57.975Z,26.75
2018-05-11T02:03:24.594Z,29.12
2018-05-11T02:05:51.256Z,28.02
2018-05-11T02:08:17.890Z,31.27
2018-05-11T02:10:44.550Z,29.70
2018-05-11T02:13:11.191Z,33.78
2018-05-11T02:15:37.842Z,32.95
2018-05-11T02:18:04.471Z,30.20
2018-05-11T02:20:31.230Z,33.08
2018-05-11T02:22:57.865Z,29.77
2018-05-11T02:25:24.609Z,30.00
2018-05-11T02:27:51.259Z,29.95
2018-05-11T02:30:17.922Z,28.08
2018-05-11T02:32:44.633Z,30.30
2018-05-11T02:35:11.306Z,29.73
2018-05-11T02:37:37.962Z,27.30
2018-05-11T02:40:04.587Z,28.65
2018-05-11T02:42:31.250Z,28.15
2018-05-11T02:44:57.875Z,27.50
2018-05-11T02:47:24.590Z,25.40
2018-05-11T02:49:51.258Z,28.38
2018-05-11T02:52:17.920Z,27.60
2018-05-11T02:54:44.552Z,29.17
2018-05-11T02:57:11.230Z,28.85
2018-05-11T02:59:37.875Z,31.73
2018-05-11T03:02:04.711Z,27.90
2018-05-11T03:04:31.412Z,31.02
2018-05-11T03:06:58.038Z,29.70
2018-05-11T03:09:24.716Z,32.38
2018-05-11T03:11:51.359Z,28.27
2018-05-11T03:14:18.094Z,29.77
2018-05-11T03:16:44.728Z,27.75
2018-05-11T03:19:11.445Z,29.63
2018-05-11T03:21:38.099Z,28.70
2018-05-11T03:24:05.010Z,30.20
2018-05-11T03:26:31.655Z,29.12
2018-05-11T03:28:58.363Z,30.23
2018-05-11T03:31:25.043Z,31.35
2018-05-11T03:33:51.668Z,30.60
2018-05-11T03:36:18.334Z,31.80
2018-05-11T03:38:44.946Z,31.75
2018-05-11T03:41:11.616Z,28.45
2018-05-11T03:43:38.314Z,30.75
2018-05-11T03:46:05.002Z,33.35
2018-05-11T03:48:31.655Z,29.52
2018-05-11T03:50:58.317Z,36.95
2018-05-11T03:53:24.974Z,29.67
2018-05-11T03:55:51.622Z,29.50
2018-05-11T03:58:18.275Z,29.42
2018-05-11T04:00:44.902Z,28.38
2018-05-11T04:03:17.562Z,27.50
2018-05-11T04:05:50.075Z,30.90
2018-05-11T04:08:22.671Z,33.25
2018-05-11T04:10:49.310Z,33.42
2018-05-11T04:13:16.025Z,34.17
2018-05-11T04:15:42.638Z,30.30
2018-05-11T04:18:09.729Z,33.83
2018-05-11T04:20:36.374Z,34.00
2018-05-11T04:23:03.085Z,32.55
2018-05-11T04:25:29.910Z,30.55
2018-05-11T04:27:56.578Z,31.55
2018-05-11T04:30:23.233Z,30.37
2018-05-11T04:32:49.872Z,32.08
2018-05-11T04:35:16.567Z,33.20
2018-05-11T04:37:43.253Z,33.90
2018-05-11T04:40:09.906Z,33.83
2018-05-11T04:42:36.618Z,37.10
2018-05-11T04:45:03.271Z,39.30
2018-05-11T04:47:29.951Z,37.05
2018-05-11T04:49:56.622Z,35.65
2018-05-11T04:52:23.355Z,35.38
2018-05-11T04:54:50.695Z,38.35
2018-05-11T04:57:17.444Z,40.88
2018-05-11T04:59:44.128Z,43.20
2018-05-11T05:02:10.817Z,43.55
2018-05-11T05:04:41.593Z,43.83
2018-05-11T05:07:08.267Z,51.45
2018-05-11T05:09:34.901Z,53.90
2018-05-11T05:12:01.597Z,46.35
2018-05-11T05:14:28.274Z,69.80
2018-05-11T05:16:54.934Z,38.20
2018-05-11T05:19:21.642Z,37.78
2018-05-11T05:21:48.233Z,39.95
2018-05-11T05:24:15.124Z,58.92
2018-05-11T05:26:41.810Z,62.97
2018-05-11T05:29:08.427Z,63.38
2018-05-11T05:31:35.090Z,69.00
2018-05-11T05:34:01.707Z,53.15
2018-05-11T05:36:28.396Z,49.65
2018-05-11T05:38:55.005Z,59.83
2018-05-11T05:41:21.705Z,60.90
2018-05-11T05:43:48.314Z,55.17
2018-05-11T05:46:14.963Z,44.53
2018-05-11T05:48:41.594Z,39.70
2018-05-11T05:51:08.212Z,40.53
2018-05-11T05:53:34.854Z,40.45
2018-05-11T05:56:01.469Z,43.42
2018-05-11T05:58:28.164Z,42.88
2018-05-11T06:00:54.765Z,43.15
2018-05-11T06:03:21.423Z,38.05
2018-05-11T06:05:48.035Z,45.55
2018-05-11T06:08:14.718Z,37.80
2018-05-11T06:10:41.306Z,40.50
2018-05-11T06:13:07.974Z,42.72
2018-05-11T06:15:35.344Z,36.88
2018-05-11T06:18:01.987Z,40.42
2018-05-11T06:20:28.605Z,37.35
2018-05-11T06:22:55.274Z,38.80
2018-05-11T06:25:21.922Z,38.17
2018-05-11T06:27:48.548Z,41.17
2018-05-11T06:30:15.186Z,40.17
2018-05-11T06:32:41.853Z,38.78
2018-05-11T06:35:08.530Z,38.78
2018-05-11T06:37:35.161Z,37.42
2018-05-11T06:40:01.825Z,37.63
2018-05-11T06:42:28.439Z,42.92
2018-05-11T06:44:55.123Z,42.50
2018-05-11T06:47:21.874Z,40.67
2018-05-11T06:49:48.522Z,36.45
2018-05-11T06:52:15.148Z,38.47
2018-05-11T06:54:41.793Z,38.38
2018-05-11T06:57:08.433Z,35.65
2018-05-11T06:59:35.062Z,40.15
2018-05-11T07:02:01.688Z,39.47
2018-05-11T07:04:28.367Z,39.42
2018-05-11T07:06:54.979Z,35.78
2018-05-11T07:09:21.766Z,38.55
2018-05-11T07:11:48.429Z,36.88
2018-05-11T07:14:15.075Z,32.28
2018-05-11T07:16:41.736Z,35.72
2018-05-11T07:19:09.142Z,33.85
2018-05-11T07:21:35.770Z,33.15
2018-05-11T07:24:02.449Z,31.33
2018-05-11T07:26:29.132Z,33.70
2018-05-11T07:28:55.771Z,36.25
2018-05-11T07:31:22.406Z,36.42
2018-05-11T07:33:49.024Z,34.35
2018-05-11T07:36:15.697Z,33.05
2018-05-11T07:38:42.342Z,32.65
2018-05-11T07:41:08.997Z,38.40
2018-05-11T07:43:35.630Z,36.45
2018-05-11T07:46:02.263Z,37.75
2018-05-11T07:48:28.887Z,34.67
2018-05-11T07:50:55.566Z,37.50
2018-05-11T07:53:22.203Z,37.30
2018-05-11T07:55:48.855Z,36.30
2018-05-11T07:58:15.531Z,35.47
2018-05-11T08:00:42.171Z,34.25
2018-05-11T08:03:08.823Z,34.05
2018-05-11T08:05:35.525Z,34.10
2018-05-11T08:08:02.205Z,36.67
2018-05-11T08:10:29.035Z,36.10
2018-05-11T08:12:55.682Z,37.40
2018-05-11T08:15:22.312Z,34.33
2018-05-11T08:17:48.973Z,32.15
2018-05-11T08:20:15.600Z,35.70
2018-05-11T08:22:42.259Z,33.00
2018-05-11T08:25:08.899Z,32.95
2018-05-11T08:27:35.551Z,34.17
2018-05-11T08:30:02.185Z,35.97
2018-05-11T08:32:28.830Z,36.10
2018-05-11T08:34:55.457Z,32.83
2018-05-11T08:37:22.131Z,35.20
2018-05-11T08:39:48.799Z,39.92
2018-05-11T08:42:15.428Z,35.67
2018-05-11T08:44:42.083Z,34.75
2018-05-11T08:47:08.713Z,35.47
2018-05-11T08:49:35.455Z,32.88
2018-05-11T08:52:02.026Z,34.70
2018-05-11T08:54:28.688Z,34.65
2018-05-11T08:56:55.340Z,30.45
2018-05-11T08:59:22.007Z,29.35
2018-05-11T09:01:48.670Z,33.63
2018-05-11T09:04:15.374Z,32.72
2018-05-11T09:06:42.002Z,30.60
2018-05-11T09:09:08.679Z,32.20
2018-05-11T09:11:35.291Z,31.00
2018-05-11T09:14:01.952Z,31.42
2018-05-11T09:16:28.620Z,29.12
2018-05-11T09:18:55.264Z,31.23
2018-05-11T09:21:21.930Z,30.30
2018-05-11T09:23:48.539Z,30.08
2018-05-11T09:26:15.208Z,28.25
2018-05-11T09:28:41.880Z,30.62
2018-05-11T09:31:08.550Z,31.80
2018-05-11T09:33:35.602Z,30.42
2018-05-11T09:36:02.279Z,30.48
2018-05-11T09:38:28.917Z,29.55
2018-05-11T09:40:55.574Z,33.00
2018-05-11T09:43:22.256Z,29.73
2018-05-11T09:45:48.884Z,33.13
2018-05-11T09:48:15.547Z,30.27
2018-05-11T09:50:42.179Z,29.17
2018-05-11T09:53:08.824Z,29.98
2018-05-11T09:55:35.458Z,30.50
2018-05-11T09:58:02.117Z,32.30
2018-05-11T10:00:28.758Z,32.78
2018-05-11T10:02:55.433Z,30.60
2018-05-11T10:05:22.090Z,30.50
2018-05-11T10:07:48.754Z,31.70
2018-05-11T10:10:15.437Z,30.58
2018-05-11T10:12:42.129Z,30.75
2018-05-11T10:15:08.806Z,32.58
2018-05-11T10:17:35.480Z,29.33
2018-05-11T10:20:02.146Z,29.20
2018-05-11T10:22:28.859Z,31.42
2018-05-11T10:24:55.595Z,27.37
2018-05-11T10:27:22.256Z,27.23
2018-05-11T10:29:48.900Z,28.77
2018-05-11T10:32:15.568Z,25.65
2018-05-11T10:34:46.105Z,28.95
2018-05-11T10:37:12.752Z,29.65
2018-05-11T10:39:39.415Z,25.33
2018-05-11T10:42:06.115Z,28.87
2018-05-11T10:44:32.791Z,28.20
2018-05-11T10:46:59.467Z,23.87
2018-05-11T10:49:26.119Z,22.55
2018-05-11T10:51:52.799Z,27.85
2018-05-11T10:54:19.455Z,24.15
2018-05-11T10:56:46.146Z,23.45
2018-05-11T10:59:12.772Z,24.75
2018-05-11T11:01:39.478Z,24.92
2018-05-11T11:04:06.108Z,25.02
2018-05-11T11:06:32.752Z,25.65
2018-05-11T11:09:00.297Z,25.05
2018-05-11T11:11:26.989Z,24.70
2018-05-11T11:13:53.653Z,26.20
2018-05-11T11:16:20.360Z,28.55
2018-05-11T11:18:47.038Z,26.45
2018-05-11T11:21:13.715Z,26.23
2018-05-11T11:23:40.374Z,24.60
2018-05-11T11:26:07.041Z,24.00
2018-05-11T11:28:33.745Z,26.07
2018-05-11T11:31:01.491Z,27.55
2018-05-11T11:33:28.171Z,24.53
2018-05-11T11:35:54.834Z,26.85
2018-05-11T11:38:21.475Z,25.40
2018-05-11T11:40:48.131Z,28.57
2018-05-11T11:43:14.800Z,26.08
2018-05-11T11:45:41.431Z,23.83
2018-05-11T11:48:09.060Z,23.70
2018-05-11T11:50:35.697Z,24.48
2018-05-11T11:53:02.395Z,23.58
2018-05-11T11:55:29.024Z,24.23
2018-05-11T11:57:55.663Z,23.60
2018-05-11T12:00:22.309Z,24.73
2018-05-11T12:02:49.058Z,24.93
2018-05-11T12:05:15.746Z,24.65
2018-05-11T12:07:42.375Z,22.87
2018-05-11T12:10:09.043Z,25.00
2018-05-11T12:12:35.675Z,23.92
2018-05-11T12:15:02.331Z,21.93
2018-05-11T12:17:28.995Z,23.53
2018-05-11T12:19:55.656Z,22.40
2018-05-11T12:22:22.298Z,22.87
2018-05-11T12:24:49.162Z,26.00
2018-05-11T12:27:15.887Z,23.27
2018-05-11T12:29:42.525Z,25.80
2018-05-11T12:32:09.176Z,22.30
2018-05-11T12:34:35.878Z,24.60
2018-05-11T12:37:02.499Z,23.10
2018-05-11T12:39:29.170Z,22.20
2018-05-11T12:41:55.800Z,24.20
2018-05-11T12:44:22.436Z,21.53
2018-05-11T12:46:49.139Z,22.90
2018-05-11T12:49:15.759Z,23.60
2018-05-11T12:51:42.417Z,23.13
2018-05-11T12:54:09.043Z,22.10
2018-05-11T12:56:35.698Z,22.37
2018-05-11T12:59:02.322Z,21.90
2018-05-11T13:01:28.992Z,22.60
2018-05-11T13:03:55.613Z,21.37
2018-05-11T13:06:22.288Z,21.10
2018-05-11T13:08:48.981Z,21.67
2018-05-11T13:11:15.600Z,19.90
2018-05-11T13:13:42.269Z,21.77
2018-05-11T13:16:08.940Z,21.47
2018-05-11T13:18:35.554Z,20.53
2018-05-11T13:21:02.342Z,21.43
2018-05-11T13:23:28.971Z,20.40
2018-05-11T13:25:55.628Z,20.90
2018-05-11T13:28:22.254Z,20.07
2018-05-11T13:30:48.884Z,20.57
2018-05-11T13:33:15.622Z,20.80
2018-05-11T13:35:42.295Z,21.37
2018-05-11T13:38:08.926Z,20.00
2018-05-11T13:40:35.580Z,19.97
2018-05-11T13:43:02.243Z,19.80
2018-05-11T13:45:28.865Z,19.20
2018-05-11T13:47:55.629Z,21.00
2018-05-11T13:50:22.251Z,19.77
2018-05-11T13:52:48.946Z,20.13
2018-05-11T13:55:15.581Z,19.20
2018-05-11T13:57:42.218Z,19.83
2018-05-11T14:00:08.855Z,19.67
2018-05-11T14:02:35.519Z,20.67
2018-05-11T14:05:02.173Z,20.33
2018-05-11T14:07:28.824Z,20.47
2018-05-11T14:09:55.599Z,19.20
2018-05-11T14:12:22.242Z,19.47
2018-05-11T14:14:48.919Z,18.73
2018-05-11T14:17:15.583Z,19.70
2018-05-11T14:19:42.249Z,21.03
2018-05-11T14:22:08.892Z,19.40
2018-05-11T14:24:35.561Z,19.60
2018-05-11T14:27:02.215Z,21.30
2018-05-11T14:29:28.864Z,21.00
2018-05-11T14:31:55.560Z,19.20
2018-05-11T14:34:22.129Z,18.80
2018-05-11T14:36:48.742Z,18.40
2018-05-11T14:39:15.457Z,19.80
2018-05-11T14:41:42.043Z,19.13
2018-05-11T14:44:08.695Z,19.10
2018-05-11T14:46:35.347Z,21.53
2018-05-11T14:49:02.231Z,21.53
2018-05-11T14:51:28.905Z,18.80
2018-05-11T14:53:55.600Z,20.20
2018-05-11T14:56:22.252Z,19.60
2018-05-11T14:58:48.911Z,18.43
2018-05-11T15:01:15.534Z,17.87
2018-05-11T15:03:42.177Z,18.10
2018-05-11T15:06:08.838Z,18.90
2018-05-11T15:08:35.498Z,17.40
2018-05-11T15:11:02.346Z,18.13
2018-05-11T15:13:28.987Z,18.30
2018-05-11T15:15:55.683Z,17.67
2018-05-11T15:18:22.359Z,17.40
2018-05-11T15:20:49.021Z,18.30
2018-05-11T15:23:15.653Z,18.40
2018-05-11T15:25:42.992Z,18.70
2018-05-11T15:28:09.632Z,17.13
2018-05-11T15:30:36.255Z,18.70
2018-05-11T15:33:02.934Z,17.63
2018-05-11T15:35:29.572Z,17.90
2018-05-11T15:37:56.234Z,19.30
2018-05-11T15:40:22.941Z,17.37
2018-05-11T15:42:49.514Z,18.30
2018-05-11T15:45:16.229Z,17.60
2018-05-11T15:47:42.870Z,17.47
2018-05-11T15:50:09.547Z,16.73
2018-05-11T15:52:36.193Z,18.80
2018-05-11T15:55:02.904Z,17.00
2018-05-11T15:57:29.536Z,17.60
2018-05-11T15:59:56.181Z,20.47
2018-05-11T16:02:22.800Z,18.37
2018-05-11T16:04:49.473Z,17.17
2018-05-11T16:07:16.100Z,18.10
2018-05-11T16:09:42.742Z,17.43
2018-05-11T16:12:09.370Z,17.40
2018-05-11T16:14:36.034Z,19.80
2018-05-11T16:17:02.684Z,17.50
2018-05-11T16:19:29.327Z,16.87
2018-05-11T16:21:55.974Z,18.70
2018-05-11T16:24:22.643Z,17.17
2018-05-11T16:26:49.318Z,18.50
2018-05-11T16:29:15.958Z,18.63
2018-05-11T16:31:42.650Z,18.60
2018-05-11T16:34:09.441Z,20.50
2018-05-11T16:36:36.106Z,17.80
2018-05-11T16:39:02.735Z,18.40
2018-05-11T16:41:29.384Z,18.97
2018-05-11T16:43:55.998Z,19.50
2018-05-11T16:46:22.660Z,19.07
2018-05-11T16:48:49.308Z,20.30
2018-05-11T16:51:15.981Z,20.00
2018-05-11T16:53:42.591Z,20.10
2018-05-11T16:56:09.249Z,18.57
2018-05-11T16:58:35.921Z,18.87
2018-05-11T17:01:02.564Z,22.63
2018-05-11T17:03:29.225Z,20.20
2018-05-11T17:05:55.884Z,19.37
2018-05-11T17:08:22.603Z,19.90
2018-05-11T17:10:49.291Z,19.57
2018-05-11T17:13:17.289Z,21.03
2018-05-11T17:15:43.969Z,22.23
2018-05-11T17:18:11.698Z,20.43
2018-05-11T17:20:39.034Z,21.97
2018-05-11T17:23:05.739Z,19.33
2018-05-11T17:25:32.386Z,19.63
2018-05-11T17:27:59.093Z,21.27
2018-05-11T17:30:26.248Z,20.40
2018-05-11T17:32:52.921Z,19.87
2018-05-11T17:35:19.650Z,21.83
2018-05-11T17:37:46.354Z,19.80
2018-05-11T17:40:13.039Z,21.23
2018-05-11T17:42:39.718Z,19.97
2018-05-11T17:45:06.370Z,20.27
2018-05-11T17:47:33.056Z,24.05
2018-05-11T17:49:59.741Z,20.00
2018-05-11T17:52:26.863Z,22.57
2018-05-11T17:54:53.552Z,20.17
2018-05-11T17:57:24.558Z,19.67
2018-05-11T17:59:51.196Z,19.23
2018-05-11T18:02:18.147Z,19.30
2018-05-11T18:04:48.962Z,20.57
2018-05-11T18:07:15.622Z,21.73
2018-05-11T18:09:42.331Z,21.87
2018-05-11T18:12:09.051Z,20.52
2018-05-11T18:14:35.732Z,20.23
2018-05-11T18:17:02.440Z,22.40
2018-05-11T18:19:29.097Z,21.40
2018-05-11T18:21:55.770Z,18.50
2018-05-11T18:24:22.479Z,20.50
2018-05-11T18:26:49.164Z,19.87
2018-05-11T18:29:15.844Z,20.80
2018-05-11T18:31:42.571Z,21.93
2018-05-11T18:34:09.246Z,20.27
2018-05-11T18:36:35.971Z,19.97
2018-05-11T18:39:02.670Z,19.62
2018-05-11T18:41:29.367Z,20.23
2018-05-11T18:43:56.048Z,23.12
2018-05-11T18:46:22.742Z,18.65
2018-05-11T18:48:49.433Z,19.98
2018-05-11T18:51:16.140Z,19.42
2018-05-11T18:53:43.075Z,19.70
2018-05-11T18:56:09.526Z,19.40
2018-05-11T18:58:36.312Z,20.02
2018-05-11T19:01:03.057Z,25.73
2018-05-11T19:03:29.718Z,21.27
2018-05-11T19:05:56.432Z,21.70
2018-05-11T19:08:27.173Z,20.75
2018-05-11T19:10:53.879Z,19.67
2018-05-11T19:13:20.628Z,20.27
2018-05-11T19:15:47.782Z,21.42
2018-05-11T19:18:14.454Z,19.08
2018-05-11T19:20:41.247Z,20.70
2018-05-11T19:23:07.943Z,19.80
2018-05-11T19:25:34.650Z,22.45
2018-05-11T19:28:01.364Z,20.65
2018-05-11T19:30:28.116Z,20.45
2018-05-11T19:32:54.775Z,20.10
2018-05-11T19:35:21.464Z,19.33
2018-05-11T19:37:48.867Z,20.17
2018-05-11T19:40:15.665Z,20.48
2018-05-11T19:42:42.378Z,22.25
2018-05-11T19:45:09.244Z,22.60
2018-05-11T19:47:35.977Z,21.75
2018-05-11T19:50:02.690Z,20.85
2018-05-11T19:52:29.447Z,19.83
2018-05-11T19:54:56.201Z,22.33
2018-05-11T19:57:26.842Z,20.75
2018-05-11T19:59:53.512Z,22.62
2018-05-11T20:02:24.534Z,24.17
2018-05-11T20:04:51.257Z,22.15
2018-05-11T20:07:17.969Z,23.20
2018-05-11T20:09:44.701Z,22.73
2018-05-11T20:12:11.498Z,22.77
2018-05-11T20:14:38.214Z,22.87
2018-05-11T20:17:04.922Z,25.02
2018-05-11T20:19:31.682Z,24.63
2018-05-11T20:21:59.289Z,22.65
2018-05-11T20:24:30.053Z,23.98
2018-05-11T20:26:57.083Z,25.40
2018-05-11T20:29:23.762Z,26.12
2018-05-11T20:31:50.452Z,24.40
2018-05-11T20:34:17.131Z,22.27
2018-05-11T20:36:43.829Z,23.85
2018-05-11T20:39:10.606Z,27.58
2018-05-11T20:41:37.418Z,24.73
2018-05-11T20:44:04.019Z,23.95
2018-05-11T20:46:30.816Z,23.67
2018-05-11T20:48:57.498Z,23.08
2018-05-11T20:51:24.175Z,23.33
2018-05-11T20:53:50.896Z,23.38
2018-05-11T20:56:17.649Z,26.75
2018-05-11T20:58:44.390Z,25.83
2018-05-11T21:01:11.104Z,25.73
2018-05-11T21:03:37.859Z,26.87
2018-05-11T21:06:04.522Z,23.87
2018-05-11T21:08:31.250Z,25.40
2018-05-11T21:10:58.025Z,25.23
2018-05-11T21:13:24.739Z,25.00
2018-05-11T21:15:51.431Z,24.00
2018-05-11T21:18:18.113Z,28.23
2018-05-11T21:20:44.811Z,27.35
2018-05-11T21:23:11.502Z,23.92
2018-05-11T21:25:38.314Z,24.15
2018-05-11T21:28:05.009Z,22.52
2018-05-11T21:30:31.692Z,23.58
2018-05-11T21:32:58.402Z,27.05
2018-05-11T21:35:25.106Z,24.17
2018-05-11T21:37:51.789Z,25.92
2018-05-11T21:40:18.472Z,24.60
2018-05-11T21:42:45.130Z,23.25
2018-05-11T21:45:11.829Z,23.58
2018-05-11T21:47:38.483Z,25.73
2018-05-11T21:50:05.223Z,23.15
2018-05-11T21:52:31.924Z,25.62
2018-05-11T21:54:58.643Z,22.48
2018-05-11T21:57:25.313Z,22.25
2018-05-11T21:59:52.064Z,23.33
2018-05-11T22:02:18.709Z,23.27
2018-05-11T22:04:45.399Z,23.60
2018-05-11T22:07:12.304Z,26.45
2018-05-11T22:09:38.995Z,24.00
2018-05-11T22:12:05.668Z,22.33
2018-05-11T22:14:32.682Z,25.02
2018-05-11T22:16:59.365Z,25.23
2018-05-11T22:19:26.009Z,22.60
2018-05-11T22:21:52.680Z,24.65
2018-05-11T22:24:19.315Z,24.63
2018-05-11T22:26:46.006Z,22.73
2018-05-11T22:29:12.660Z,25.42
2018-05-11T22:31:39.560Z,24.08
2018-05-11T22:34:06.206Z,26.92
2018-05-11T22:36:32.855Z,23.45
2018-05-11T22:38:59.527Z,25.05
2018-05-11T22:41:26.183Z,23.90
2018-05-11T22:43:52.841Z,23.35
2018-05-11T22:46:19.517Z,23.20
2018-05-11T22:48:46.178Z,24.45
2018-05-11T22:51:12.828Z,23.77
2018-05-11T22:53:39.483Z,23.42
2018-05-11T22:56:06.166Z,22.95
2018-05-11T22:58:32.814Z,23.58
2018-05-11T23:00:59.490Z,29.42
2018-05-11T23:03:26.170Z,25.20
2018-05-11T23:05:52.818Z,22.55
2018-05-11T23:08:19.480Z,23.70
2018-05-11T23:10:46.119Z,24.58
2018-05-11T23:13:12.750Z,24.30
2018-05-11T23:15:39.390Z,26.58
2018-05-11T23:18:06.058Z,24.63
2018-05-11T23:20:32.705Z,24.80
2018-05-11T23:22:59.386Z,23.48
2018-05-11T23:25:26.012Z,25.08
2018-05-11T23:27:52.805Z,24.12
2018-05-11T23:30:19.675Z,25.50
2018-05-11T23:32:46.340Z,24.92
2018-05-11T23:35:13.044Z,24.30
2018-05-11T23:37:40.300Z,26.12
2018-05-11T23:40:06.955Z,26.30
2018-05-11T23:42:33.574Z,24.40
2018-05-11T23:45:00.276Z,23.77
2018-05-11T23:47:26.938Z,25.92
2018-05-11T23:49:53.596Z,24.77
2018-05-11T23:52:20.265Z,28.55
2018-05-11T23:54:46.936Z,27.80
2018-05-11T23:57:13.583Z,26.17
2018-05-11T23:59:40.259Z,26.02
